Wednesday, May 27, 2015, 5:43 PM EDT

KSEG, Selinsgrove Penn Valley Airport

Location: Selinsgrove, PA, United States Lat: 40.817
Local Time: 5:43 PM EDT (21:43 GMT) Lon: -76.867
Time Zone: US/Eastern Elev: 449 ft

Show me the last for .
Show Decoded

2015-05-27 16:53 METAR KSEG 272053Z AUTO VRB04KT 10SM CLR 27/18 A3009 RMK AO2 SLP184 T02670183
                 56011 =
2015-05-27 15:53 METAR KSEG 271953Z AUTO 23006KT 10SM FEW037 27/18 A3009 RMK AO2 SLP184 T02670183
                 =
2015-05-27 13:53 METAR KSEG 271753Z AUTO VRB06KT 10SM BKN110 26/19 A3012 RMK AO2 LTG DSNT NE-S
                 SLP195 P0002 60005 T02560189 10300 20228 55003 =
2015-05-27 12:53 METAR KSEG 271653Z AUTO 00000KT 10SM FEW024 BKN044 BKN050 25/22 A3011 RMK AO2
                 LTG DSNT NE-S RAE49 SLP193 P0003 T02500222 =
2015-05-27 12:44 METAR KSEG 271644Z AUTO 22004KT 4SM -RA BR FEW023 BKN043 OVC055 23/21 A3012 RMK
                 AO2 LTG DSNT NE-S P0002 T02330211 =
2015-05-27 12:42 METAR KSEG 271642Z AUTO 21005KT 1 1/4SM -RA BR FEW023 BKN036 OVC050 23/21 A3012
                 RMK AO2 LTG DSNT NE-S P0002 T02330211 =
2015-05-27 12:33 METAR KSEG 271633Z AUTO VRB05KT 3/4SM +RA BR FEW025 OVC034 23/21 A3012 RMK AO2
                 LTG DSNT S P0001 T02280206 =
2015-05-27 12:31 METAR KSEG 271631Z AUTO VRB06KT 1 1/2SM +RA OVC034 23/21 A3012 RMK AO2 LTG DSNT
                 S P0001 T02330206 =
2015-05-27 11:53 METAR KSEG 271553Z AUTO 22005KT 9SM -RA FEW036 BKN047 BKN090 28/19 A3012 RMK AO2
                 RAB52 SLP194 P0000 T02780189 =
2015-05-27 10:53 METAR KSEG 271453Z AUTO 19008KT 10SM FEW026 FEW120 27/19 A3013 RMK AO2 SLP198
                 T02720194 50002 =
2015-05-27 09:53 METAR KSEG 271353Z AUTO 18006KT 10SM SCT022 25/19 A3013 RMK AO2 SLP200 T02500194
                 =
2015-05-27 09:39 METAR KSEG 271339Z AUTO 17007KT 140V210 10SM BKN021 26/19 A3013 RMK AO2
                 T02610194 =
2015-05-27 09:23 METAR KSEG 271323Z AUTO 19008KT 10SM SCT021 26/20 A3014 RMK AO2 T02610200 =
2015-05-27 08:53 METAR KSEG 271253Z AUTO 20008G14KT 10SM BKN018 25/19 A3013 RMK AO2 SLP200
                 T02500194 =
2015-05-27 08:38 METAR KSEG 271238Z AUTO 21009G14KT 180V240 10SM BKN018 26/20 A3014 RMK AO2
                 T02560200 =
2015-05-27 07:53 METAR KSEG 271153Z AUTO VRB06KT 10SM CLR 24/19 A3012 RMK AO2 SLP196 T02390194
                 10239 20194 51006 =
2015-05-27 06:53 METAR KSEG 271053Z AUTO 20003KT 10SM CLR 23/19 A3012 RMK AO2 SLP195 T02280194 =
2015-05-27 05:53 METAR KSEG 270953Z AUTO 00000KT 8SM CLR 21/19 A3011 RMK AO2 SLP192 T02060189 =
2015-05-27 02:53 METAR KSEG 270653Z AUTO 19003KT 10SM BKN095 23/19 A3011 RMK AO2 SLP190 T02330189
                 =
2015-05-27 00:53 METAR KSEG 270453Z AUTO 18006KT 10SM CLR 24/19 A3011 RMK AO2 SLP191 T02390189
                 403060161 =
2015-05-26 23:53 METAR KSEG 270353Z AUTO 00000KT 10SM BKN043 BKN050 BKN075 23/19 A3012 RMK AO2
                 SLP195 T02280189 =
2015-05-26 21:53 METAR KSEG 270153Z AUTO 00000KT 10SM CLR 25/18 A3011 RMK AO2 SLP192 T02500178 =
2015-05-26 20:53 METAR KSEG 270053Z AUTO 00000KT 10SM CLR 26/18 A3010 RMK AO2 SLP190 T02610178 =
2015-05-26 19:53 METAR KSEG 262353Z AUTO VRB03KT 10SM CLR 27/18 A3010 RMK AO2 SLP188 T02720178
                 10306 20272 56008 =
2015-05-26 18:53 METAR KSEG 262253Z AUTO 19006KT 10SM BKN050 28/18 A3010 RMK AO2 SLP188 T02830178
                 =

Support USWX by starting your Amazon purchase here.